sensor_id;sensor_type;location;lat;lon;timestamp;P1;durP1;ratioP1;P2;durP2;ratioP2
3811;SDS011;1921;49.368;11.068;2023-07-29T00:02:00;70.50;;;53.17;;
3811;SDS011;1921;49.368;11.068;2023-07-29T00:04:27;74.40;;;53.00;;
3811;SDS011;1921;49.368;11.068;2023-07-29T00:06:53;70.70;;;52.50;;
3811;SDS011;1921;49.368;11.068;2023-07-29T00:09:19;72.53;;;52.53;;
3811;SDS011;1921;49.368;11.068;2023-07-29T00:11:44;75.80;;;52.70;;
3811;SDS011;1921;49.368;11.068;2023-07-29T00:14:10;72.80;;;53.60;;
3811;SDS011;1921;49.368;11.068;2023-07-29T00:16:36;71.20;;;52.93;;
3811;SDS011;1921;49.368;11.068;2023-07-29T00:19:02;71.60;;;52.70;;
3811;SDS011;1921;49.368;11.068;2023-07-29T00:21:28;72.37;;;52.57;;
3811;SDS011;1921;49.368;11.068;2023-07-29T00:23:54;70.90;;;52.47;;
3811;SDS011;1921;49.368;11.068;2023-07-29T00:26:22;71.03;;;52.27;;
3811;SDS011;1921;49.368;11.068;2023-07-29T00:28:50;70.10;;;52.33;;
3811;SDS011;1921;49.368;11.068;2023-07-29T00:31:16;75.70;;;53.90;;
3811;SDS011;1921;49.368;11.068;2023-07-29T00:33:42;76.00;;;54.67;;
3811;SDS011;1921;49.368;11.068;2023-07-29T00:36:08;79.50;;;53.60;;
3811;SDS011;1921;49.368;11.068;2023-07-29T00:38:34;71.00;;;53.20;;
3811;SDS011;1921;49.368;11.068;2023-07-29T00:41:00;76.60;;;54.17;;
3811;SDS011;1921;49.368;11.068;2023-07-29T00:43:28;72.77;;;53.80;;
3811;SDS011;1921;49.368;11.068;2023-07-29T00:45:54;73.03;;;53.60;;
3811;SDS011;1921;49.368;11.068;2023-07-29T00:48:22;75.10;;;53.33;;
3811;SDS011;1921;49.368;11.068;2023-07-29T00:50:49;73.67;;;53.37;;
3811;SDS011;1921;49.368;11.068;2023-07-29T00:53:15;76.37;;;53.83;;
3811;SDS011;1921;49.368;11.068;2023-07-29T00:55:41;72.80;;;52.90;;
3811;SDS011;1921;49.368;11.068;2023-07-29T00:58:07;73.30;;;53.07;;
3811;SDS011;1921;49.368;11.068;2023-07-29T01:00:32;73.53;;;53.93;;
3811;SDS011;1921;49.368;11.068;2023-07-29T01:02:58;73.77;;;53.63;;
3811;SDS011;1921;49.368;11.068;2023-07-29T01:05:24;76.23;;;54.33;;
3811;SDS011;1921;49.368;11.068;2023-07-29T01:08:17;76.73;;;54.20;;
3811;SDS011;1921;49.368;11.068;2023-07-29T01:14:33;75.20;;;54.40;;
3811;SDS011;1921;49.368;11.068;2023-07-29T01:16:59;78.30;;;53.97;;
3811;SDS011;1921;49.368;11.068;2023-07-29T01:22:14;80.73;;;54.50;;
3811;SDS011;1921;49.368;11.068;2023-07-29T01:24:41;76.30;;;54.03;;
3811;SDS011;1921;49.368;11.068;2023-07-29T01:27:07;80.63;;;54.83;;
3811;SDS011;1921;49.368;11.068;2023-07-29T01:29:33;74.27;;;54.20;;
3811;SDS011;1921;49.368;11.068;2023-07-29T01:32:01;78.70;;;55.03;;
3811;SDS011;1921;49.368;11.068;2023-07-29T01:34:39;83.53;;;54.23;;
3811;SDS011;1921;49.368;11.068;2023-07-29T01:37:38;77.60;;;54.70;;
3811;SDS011;1921;49.368;11.068;2023-07-29T01:40:06;75.03;;;54.53;;
3811;SDS011;1921;49.368;11.068;2023-07-29T01:42:34;80.77;;;55.40;;
3811;SDS011;1921;49.368;11.068;2023-07-29T01:45:00;74.10;;;54.33;;
3811;SDS011;1921;49.368;11.068;2023-07-29T01:47:25;77.70;;;54.53;;
3811;SDS011;1921;49.368;11.068;2023-07-29T01:49:51;77.93;;;54.50;;
3811;SDS011;1921;49.368;11.068;2023-07-29T01:52:17;78.93;;;54.37;;
3811;SDS011;1921;49.368;11.068;2023-07-29T01:54:43;76.47;;;54.30;;
3811;SDS011;1921;49.368;11.068;2023-07-29T01:57:08;85.87;;;56.77;;
3811;SDS011;1921;49.368;11.068;2023-07-29T01:59:34;76.83;;;54.33;;
3811;SDS011;1921;49.368;11.068;2023-07-29T02:02:00;79.27;;;55.60;;
3811;SDS011;1921;49.368;11.068;2023-07-29T02:04:25;84.87;;;55.70;;
3811;SDS011;1921;49.368;11.068;2023-07-29T02:06:52;84.37;;;55.40;;
3811;SDS011;1921;49.368;11.068;2023-07-29T02:09:17;77.50;;;54.80;;
3811;SDS011;1921;49.368;11.068;2023-07-29T02:11:43;87.60;;;55.80;;
3811;SDS011;1921;49.368;11.068;2023-07-29T02:14:09;75.73;;;54.53;;
3811;SDS011;1921;49.368;11.068;2023-07-29T02:16:34;81.07;;;56.20;;
3811;SDS011;1921;49.368;11.068;2023-07-29T02:19:01;87.17;;;55.70;;
3811;SDS011;1921;49.368;11.068;2023-07-29T02:21:27;79.70;;;55.70;;
3811;SDS011;1921;49.368;11.068;2023-07-29T02:23:52;84.37;;;56.53;;
3811;SDS011;1921;49.368;11.068;2023-07-29T02:26:18;84.67;;;57.37;;
3811;SDS011;1921;49.368;11.068;2023-07-29T02:28:44;83.73;;;56.30;;
3811;SDS011;1921;49.368;11.068;2023-07-29T02:31:15;82.73;;;56.70;;
3811;SDS011;1921;49.368;11.068;2023-07-29T02:33:46;81.40;;;56.70;;
3811;SDS011;1921;49.368;11.068;2023-07-29T02:36:12;88.50;;;56.60;;
3811;SDS011;1921;49.368;11.068;2023-07-29T02:38:39;87.23;;;56.27;;
3811;SDS011;1921;49.368;11.068;2023-07-29T02:41:05;86.40;;;57.77;;
3811;SDS011;1921;49.368;11.068;2023-07-29T02:43:34;89.87;;;57.50;;
3811;SDS011;1921;49.368;11.068;2023-07-29T02:46:00;86.00;;;57.97;;
3811;SDS011;1921;49.368;11.068;2023-07-29T02:48:27;86.67;;;57.67;;
3811;SDS011;1921;49.368;11.068;2023-07-29T02:50:54;91.93;;;57.20;;
3811;SDS011;1921;49.368;11.068;2023-07-29T02:53:21;105.00;;;58.00;;
3811;SDS011;1921;49.368;11.068;2023-07-29T02:55:47;166.53;;;59.73;;
3811;SDS011;1921;49.368;11.068;2023-07-29T02:58:13;119.53;;;58.07;;
3811;SDS011;1921;49.368;11.068;2023-07-29T03:00:39;99.27;;;59.13;;
3811;SDS011;1921;49.368;11.068;2023-07-29T03:03:08;92.80;;;58.17;;
3811;SDS011;1921;49.368;11.068;2023-07-29T03:05:34;90.40;;;57.73;;
3811;SDS011;1921;49.368;11.068;2023-07-29T03:08:00;94.53;;;58.80;;
3811;SDS011;1921;49.368;11.068;2023-07-29T03:10:26;86.97;;;57.67;;
3811;SDS011;1921;49.368;11.068;2023-07-29T03:12:55;106.37;;;57.20;;
3811;SDS011;1921;49.368;11.068;2023-07-29T03:15:24;87.43;;;57.87;;
3811;SDS011;1921;49.368;11.068;2023-07-29T03:17:51;86.07;;;57.27;;
3811;SDS011;1921;49.368;11.068;2023-07-29T03:20:18;92.60;;;56.93;;
3811;SDS011;1921;49.368;11.068;2023-07-29T03:22:44;91.83;;;58.37;;
3811;SDS011;1921;49.368;11.068;2023-07-29T03:25:11;84.77;;;56.60;;
3811;SDS011;1921;49.368;11.068;2023-07-29T03:27:36;92.57;;;57.20;;
3811;SDS011;1921;49.368;11.068;2023-07-29T03:30:03;90.50;;;57.97;;
3811;SDS011;1921;49.368;11.068;2023-07-29T03:32:29;90.30;;;56.90;;
3811;SDS011;1921;49.368;11.068;2023-07-29T03:34:55;91.63;;;57.47;;
3811;SDS011;1921;49.368;11.068;2023-07-29T03:37:20;91.20;;;58.20;;
3811;SDS011;1921;49.368;11.068;2023-07-29T03:39:46;83.33;;;55.70;;
3811;SDS011;1921;49.368;11.068;2023-07-29T03:42:12;89.57;;;57.57;;
3811;SDS011;1921;49.368;11.068;2023-07-29T03:44:38;86.43;;;56.70;;
3811;SDS011;1921;49.368;11.068;2023-07-29T03:47:04;83.23;;;55.97;;
3811;SDS011;1921;49.368;11.068;2023-07-29T03:49:31;91.87;;;57.60;;
3811;SDS011;1921;49.368;11.068;2023-07-29T03:51:57;93.43;;;58.37;;
3811;SDS011;1921;49.368;11.068;2023-07-29T03:54:23;87.23;;;57.90;;
3811;SDS011;1921;49.368;11.068;2023-07-29T03:56:48;81.87;;;56.10;;
3811;SDS011;1921;49.368;11.068;2023-07-29T03:59:14;85.83;;;57.40;;
3811;SDS011;1921;49.368;11.068;2023-07-29T04:01:40;82.57;;;56.40;;
3811;SDS011;1921;49.368;11.068;2023-07-29T04:04:06;84.60;;;56.17;;
3811;SDS011;1921;49.368;11.068;2023-07-29T04:06:32;87.23;;;56.07;;
3811;SDS011;1921;49.368;11.068;2023-07-29T04:08:58;87.30;;;57.00;;
3811;SDS011;1921;49.368;11.068;2023-07-29T04:11:23;85.13;;;56.83;;
3811;SDS011;1921;49.368;11.068;2023-07-29T04:13:49;83.87;;;56.60;;
3811;SDS011;1921;49.368;11.068;2023-07-29T04:16:15;84.93;;;57.93;;
3811;SDS011;1921;49.368;11.068;2023-07-29T04:18:41;82.63;;;56.40;;
3811;SDS011;1921;49.368;11.068;2023-07-29T04:21:07;83.27;;;56.80;;
3811;SDS011;1921;49.368;11.068;2023-07-29T04:23:33;83.10;;;56.63;;
3811;SDS011;1921;49.368;11.068;2023-07-29T04:26:00;83.37;;;56.07;;
3811;SDS011;1921;49.368;11.068;2023-07-29T04:28:26;78.00;;;55.40;;
3811;SDS011;1921;49.368;11.068;2023-07-29T04:30:51;82.10;;;55.33;;
3811;SDS011;1921;49.368;11.068;2023-07-29T04:33:17;77.50;;;54.67;;
3811;SDS011;1921;49.368;11.068;2023-07-29T04:35:43;79.43;;;55.37;;
3811;SDS011;1921;49.368;11.068;2023-07-29T04:38:09;80.67;;;55.10;;
3811;SDS011;1921;49.368;11.068;2023-07-29T04:40:34;75.20;;;53.83;;
3811;SDS011;1921;49.368;11.068;2023-07-29T04:43:00;79.20;;;54.17;;
3811;SDS011;1921;49.368;11.068;2023-07-29T04:45:29;73.97;;;53.77;;
3811;SDS011;1921;49.368;11.068;2023-07-29T04:47:56;75.17;;;53.80;;
3811;SDS011;1921;49.368;11.068;2023-07-29T04:50:23;74.57;;;53.83;;
3811;SDS011;1921;49.368;11.068;2023-07-29T04:52:49;75.33;;;53.43;;
3811;SDS011;1921;49.368;11.068;2023-07-29T04:55:14;75.13;;;53.70;;
3811;SDS011;1921;49.368;11.068;2023-07-29T04:57:40;75.80;;;53.80;;
3811;SDS011;1921;49.368;11.068;2023-07-29T05:00:06;74.50;;;53.20;;
3811;SDS011;1921;49.368;11.068;2023-07-29T05:02:32;75.40;;;52.87;;
3811;SDS011;1921;49.368;11.068;2023-07-29T05:04:58;73.60;;;52.70;;
3811;SDS011;1921;49.368;11.068;2023-07-29T05:07:24;74.83;;;53.03;;
3811;SDS011;1921;49.368;11.068;2023-07-29T05:09:49;74.07;;;52.93;;
3811;SDS011;1921;49.368;11.068;2023-07-29T05:12:15;71.03;;;52.30;;
3811;SDS011;1921;49.368;11.068;2023-07-29T05:14:41;72.17;;;52.00;;
3811;SDS011;1921;49.368;11.068;2023-07-29T05:17:06;71.53;;;51.87;;
3811;SDS011;1921;49.368;11.068;2023-07-29T05:19:32;70.33;;;51.50;;
3811;SDS011;1921;49.368;11.068;2023-07-29T05:21:58;70.10;;;51.50;;
3811;SDS011;1921;49.368;11.068;2023-07-29T05:24:23;70.87;;;51.83;;
3811;SDS011;1921;49.368;11.068;2023-07-29T05:26:49;71.17;;;51.73;;
3811;SDS011;1921;49.368;11.068;2023-07-29T05:29:15;68.80;;;51.00;;
3811;SDS011;1921;49.368;11.068;2023-07-29T05:31:41;69.10;;;51.20;;
3811;SDS011;1921;49.368;11.068;2023-07-29T05:34:06;74.43;;;51.97;;
3811;SDS011;1921;49.368;11.068;2023-07-29T05:36:32;70.37;;;51.37;;
3811;SDS011;1921;49.368;11.068;2023-07-29T05:38:58;70.27;;;51.17;;
3811;SDS011;1921;49.368;11.068;2023-07-29T05:41:24;70.90;;;50.90;;
3811;SDS011;1921;49.368;11.068;2023-07-29T05:43:52;68.37;;;51.03;;
3811;SDS011;1921;49.368;11.068;2023-07-29T05:46:18;70.50;;;51.43;;
3811;SDS011;1921;49.368;11.068;2023-07-29T05:48:44;73.27;;;51.77;;
3811;SDS011;1921;49.368;11.068;2023-07-29T05:51:09;70.70;;;51.60;;
3811;SDS011;1921;49.368;11.068;2023-07-29T05:53:35;69.20;;;51.07;;
3811;SDS011;1921;49.368;11.068;2023-07-29T05:56:01;70.03;;;51.87;;
3811;SDS011;1921;49.368;11.068;2023-07-29T05:58:26;71.73;;;51.30;;
3811;SDS011;1921;49.368;11.068;2023-07-29T06:00:52;69.57;;;51.13;;
3811;SDS011;1921;49.368;11.068;2023-07-29T06:03:18;69.20;;;51.00;;
3811;SDS011;1921;49.368;11.068;2023-07-29T06:05:43;71.30;;;51.20;;
3811;SDS011;1921;49.368;11.068;2023-07-29T06:08:09;71.30;;;51.90;;
3811;SDS011;1921;49.368;11.068;2023-07-29T06:10:35;71.60;;;51.70;;
3811;SDS011;1921;49.368;11.068;2023-07-29T06:13:01;68.93;;;51.20;;
3811;SDS011;1921;49.368;11.068;2023-07-29T06:15:26;70.13;;;51.57;;
3811;SDS011;1921;49.368;11.068;2023-07-29T06:17:52;70.67;;;52.10;;
3811;SDS011;1921;49.368;11.068;2023-07-29T06:20:18;71.57;;;51.70;;
3811;SDS011;1921;49.368;11.068;2023-07-29T06:22:44;73.20;;;51.40;;
3811;SDS011;1921;49.368;11.068;2023-07-29T06:25:09;68.97;;;51.00;;
3811;SDS011;1921;49.368;11.068;2023-07-29T06:27:35;69.57;;;51.13;;
3811;SDS011;1921;49.368;11.068;2023-07-29T06:30:01;69.67;;;51.30;;
3811;SDS011;1921;49.368;11.068;2023-07-29T06:32:27;69.67;;;51.57;;
3811;SDS011;1921;49.368;11.068;2023-07-29T06:34:52;78.13;;;51.40;;
3811;SDS011;1921;49.368;11.068;2023-07-29T06:37:20;68.37;;;51.17;;
3811;SDS011;1921;49.368;11.068;2023-07-29T06:39:46;75.90;;;52.40;;
3811;SDS011;1921;49.368;11.068;2023-07-29T06:42:12;71.03;;;52.00;;
3811;SDS011;1921;49.368;11.068;2023-07-29T06:44:38;73.20;;;52.00;;
3811;SDS011;1921;49.368;11.068;2023-07-29T06:47:05;71.10;;;52.30;;
3811;SDS011;1921;49.368;11.068;2023-07-29T06:49:30;71.23;;;52.50;;
3811;SDS011;1921;49.368;11.068;2023-07-29T06:51:56;71.67;;;51.17;;
3811;SDS011;1921;49.368;11.068;2023-07-29T06:54:25;77.47;;;52.30;;
3811;SDS011;1921;49.368;11.068;2023-07-29T06:56:51;75.30;;;53.30;;
3811;SDS011;1921;49.368;11.068;2023-07-29T06:59:17;74.53;;;53.17;;
3811;SDS011;1921;49.368;11.068;2023-07-29T07:01:43;76.87;;;53.03;;
3811;SDS011;1921;49.368;11.068;2023-07-29T07:04:09;72.57;;;53.10;;
3811;SDS011;1921;49.368;11.068;2023-07-29T07:06:34;73.30;;;52.60;;
3811;SDS011;1921;49.368;11.068;2023-07-29T07:09:00;80.83;;;53.60;;
3811;SDS011;1921;49.368;11.068;2023-07-29T07:11:26;72.60;;;53.30;;
3811;SDS011;1921;49.368;11.068;2023-07-29T07:13:51;75.90;;;53.80;;
3811;SDS011;1921;49.368;11.068;2023-07-29T07:16:17;77.77;;;54.67;;
3811;SDS011;1921;49.368;11.068;2023-07-29T07:18:43;85.43;;;54.30;;
3811;SDS011;1921;49.368;11.068;2023-07-29T07:21:09;79.10;;;54.00;;
3811;SDS011;1921;49.368;11.068;2023-07-29T07:23:35;77.20;;;53.90;;
3811;SDS011;1921;49.368;11.068;2023-07-29T07:26:01;75.03;;;54.00;;
3811;SDS011;1921;49.368;11.068;2023-07-29T07:28:27;76.67;;;54.27;;
3811;SDS011;1921;49.368;11.068;2023-07-29T07:30:53;77.67;;;54.20;;
3811;SDS011;1921;49.368;11.068;2023-07-29T07:33:20;74.43;;;54.20;;
3811;SDS011;1921;49.368;11.068;2023-07-29T07:35:47;85.73;;;54.60;;
3811;SDS011;1921;49.368;11.068;2023-07-29T07:38:13;77.10;;;54.20;;
3811;SDS011;1921;49.368;11.068;2023-07-29T07:40:39;75.63;;;54.77;;
3811;SDS011;1921;49.368;11.068;2023-07-29T07:43:05;74.43;;;53.20;;
3811;SDS011;1921;49.368;11.068;2023-07-29T07:45:35;74.50;;;52.97;;
3811;SDS011;1921;49.368;11.068;2023-07-29T07:48:01;73.97;;;53.03;;
3811;SDS011;1921;49.368;11.068;2023-07-29T07:50:29;72.77;;;53.00;;
3811;SDS011;1921;49.368;11.068;2023-07-29T07:52:55;80.30;;;54.00;;
3811;SDS011;1921;49.368;11.068;2023-07-29T07:55:20;73.63;;;53.30;;
3811;SDS011;1921;49.368;11.068;2023-07-29T07:57:46;80.83;;;54.37;;
3811;SDS011;1921;49.368;11.068;2023-07-29T08:00:12;73.33;;;52.87;;
3811;SDS011;1921;49.368;11.068;2023-07-29T08:02:40;79.73;;;54.50;;
3811;SDS011;1921;49.368;11.068;2023-07-29T08:05:06;75.47;;;54.03;;
3811;SDS011;1921;49.368;11.068;2023-07-29T08:07:32;74.33;;;54.30;;
3811;SDS011;1921;49.368;11.068;2023-07-29T08:09:58;76.20;;;53.00;;
3811;SDS011;1921;49.368;11.068;2023-07-29T08:12:23;76.43;;;53.30;;
3811;SDS011;1921;49.368;11.068;2023-07-29T08:14:49;77.57;;;54.10;;
3811;SDS011;1921;49.368;11.068;2023-07-29T08:17:15;73.93;;;53.40;;
3811;SDS011;1921;49.368;11.068;2023-07-29T08:19:41;74.77;;;53.87;;
3811;SDS011;1921;49.368;11.068;2023-07-29T08:22:06;79.80;;;54.17;;
3811;SDS011;1921;49.368;11.068;2023-07-29T08:24:32;74.60;;;53.67;;
3811;SDS011;1921;49.368;11.068;2023-07-29T08:26:59;75.00;;;53.57;;
3811;SDS011;1921;49.368;11.068;2023-07-29T08:29:24;79.53;;;54.40;;
3811;SDS011;1921;49.368;11.068;2023-07-29T08:31:50;78.87;;;54.70;;
3811;SDS011;1921;49.368;11.068;2023-07-29T08:34:16;77.47;;;54.40;;
3811;SDS011;1921;49.368;11.068;2023-07-29T08:36:43;76.37;;;54.57;;
3811;SDS011;1921;49.368;11.068;2023-07-29T08:39:09;72.70;;;52.57;;
3811;SDS011;1921;49.368;11.068;2023-07-29T08:41:37;80.03;;;54.70;;
3811;SDS011;1921;49.368;11.068;2023-07-29T08:44:21;81.73;;;54.27;;
3811;SDS011;1921;49.368;11.068;2023-07-29T08:46:49;75.83;;;53.70;;
3811;SDS011;1921;49.368;11.068;2023-07-29T08:49:16;82.40;;;54.43;;
3811;SDS011;1921;49.368;11.068;2023-07-29T08:51:44;77.43;;;54.07;;
3811;SDS011;1921;49.368;11.068;2023-07-29T08:54:14;84.80;;;54.07;;
3811;SDS011;1921;49.368;11.068;2023-07-29T08:56:40;78.70;;;54.93;;
3811;SDS011;1921;49.368;11.068;2023-07-29T08:59:08;86.87;;;54.10;;
3811;SDS011;1921;49.368;11.068;2023-07-29T09:01:35;80.10;;;54.00;;
3811;SDS011;1921;49.368;11.068;2023-07-29T09:04:03;76.07;;;54.00;;
3811;SDS011;1921;49.368;11.068;2023-07-29T09:06:29;79.70;;;54.07;;
3811;SDS011;1921;49.368;11.068;2023-07-29T09:08:56;75.73;;;53.60;;
3811;SDS011;1921;49.368;11.068;2023-07-29T09:11:24;76.07;;;53.70;;
3811;SDS011;1921;49.368;11.068;2023-07-29T09:13:50;75.10;;;53.93;;
3811;SDS011;1921;49.368;11.068;2023-07-29T09:16:17;77.90;;;54.43;;
3811;SDS011;1921;49.368;11.068;2023-07-29T09:18:47;78.10;;;54.40;;
3811;SDS011;1921;49.368;11.068;2023-07-29T09:21:17;74.73;;;53.33;;
3811;SDS011;1921;49.368;11.068;2023-07-29T09:23:49;79.27;;;54.00;;
3811;SDS011;1921;49.368;11.068;2023-07-29T09:26:26;76.47;;;54.10;;
3811;SDS011;1921;49.368;11.068;2023-07-29T09:28:53;78.47;;;53.77;;
3811;SDS011;1921;49.368;11.068;2023-07-29T09:31:22;75.90;;;53.70;;
3811;SDS011;1921;49.368;11.068;2023-07-29T09:33:49;75.27;;;54.60;;
3811;SDS011;1921;49.368;11.068;2023-07-29T09:36:21;74.83;;;53.83;;
3811;SDS011;1921;49.368;11.068;2023-07-29T09:38:47;109.50;;;55.40;;
3811;SDS011;1921;49.368;11.068;2023-07-29T09:41:13;80.43;;;53.60;;
3811;SDS011;1921;49.368;11.068;2023-07-29T09:43:40;104.60;;;56.20;;
3811;SDS011;1921;49.368;11.068;2023-07-29T09:46:06;82.03;;;55.43;;
3811;SDS011;1921;49.368;11.068;2023-07-29T09:48:32;85.67;;;55.60;;
3811;SDS011;1921;49.368;11.068;2023-07-29T09:51:09;82.47;;;55.20;;
3811;SDS011;1921;49.368;11.068;2023-07-29T09:53:43;76.73;;;55.00;;
3811;SDS011;1921;49.368;11.068;2023-07-29T09:56:11;80.37;;;55.00;;
3811;SDS011;1921;49.368;11.068;2023-07-29T09:58:38;77.17;;;54.67;;
3811;SDS011;1921;49.368;11.068;2023-07-29T10:01:05;75.70;;;54.10;;
3811;SDS011;1921;49.368;11.068;2023-07-29T10:03:32;80.47;;;55.80;;
3811;SDS011;1921;49.368;11.068;2023-07-29T10:06:02;82.07;;;55.97;;
3811;SDS011;1921;49.368;11.068;2023-07-29T10:08:30;78.60;;;55.53;;
3811;SDS011;1921;49.368;11.068;2023-07-29T10:11:01;80.27;;;54.87;;
3811;SDS011;1921;49.368;11.068;2023-07-29T10:13:27;78.60;;;54.90;;
3811;SDS011;1921;49.368;11.068;2023-07-29T10:15:53;75.40;;;53.77;;
3811;SDS011;1921;49.368;11.068;2023-07-29T10:18:21;79.70;;;54.23;;
3811;SDS011;1921;49.368;11.068;2023-07-29T10:20:49;77.70;;;54.17;;
3811;SDS011;1921;49.368;11.068;2023-07-29T10:23:17;76.87;;;54.20;;
3811;SDS011;1921;49.368;11.068;2023-07-29T10:25:47;76.23;;;53.57;;
3811;SDS011;1921;49.368;11.068;2023-07-29T10:28:20;78.50;;;54.00;;
3811;SDS011;1921;49.368;11.068;2023-07-29T10:30:54;78.20;;;54.07;;
3811;SDS011;1921;49.368;11.068;2023-07-29T10:33:21;75.47;;;53.47;;
3811;SDS011;1921;49.368;11.068;2023-07-29T10:35:46;76.27;;;53.53;;
3811;SDS011;1921;49.368;11.068;2023-07-29T10:38:12;77.03;;;54.30;;
3811;SDS011;1921;49.368;11.068;2023-07-29T10:40:46;77.70;;;54.20;;
3811;SDS011;1921;49.368;11.068;2023-07-29T10:46:14;75.03;;;53.57;;
3811;SDS011;1921;49.368;11.068;2023-07-29T10:48:51;76.73;;;53.67;;
3811;SDS011;1921;49.368;11.068;2023-07-29T10:51:34;75.60;;;53.63;;
3811;SDS011;1921;49.368;11.068;2023-07-29T10:54:09;76.00;;;53.20;;
3811;SDS011;1921;49.368;11.068;2023-07-29T10:56:48;74.20;;;53.30;;
3811;SDS011;1921;49.368;11.068;2023-07-29T11:01:50;73.23;;;53.20;;
3811;SDS011;1921;49.368;11.068;2023-07-29T11:04:23;75.90;;;53.33;;
3811;SDS011;1921;49.368;11.068;2023-07-29T11:15:16;74.53;;;53.60;;
3811;SDS011;1921;49.368;11.068;2023-07-29T11:17:56;73.73;;;52.80;;
3811;SDS011;1921;49.368;11.068;2023-07-29T11:20:27;75.27;;;53.13;;
3811;SDS011;1921;49.368;11.068;2023-07-29T11:22:55;80.63;;;53.37;;
3811;SDS011;1921;49.368;11.068;2023-07-29T11:25:31;75.93;;;53.50;;
3811;SDS011;1921;49.368;11.068;2023-07-29T11:27:59;72.67;;;53.00;;
3811;SDS011;1921;49.368;11.068;2023-07-29T11:30:25;74.77;;;53.20;;
3811;SDS011;1921;49.368;11.068;2023-07-29T11:32:52;75.10;;;53.53;;
3811;SDS011;1921;49.368;11.068;2023-07-29T11:35:20;73.63;;;53.20;;
3811;SDS011;1921;49.368;11.068;2023-07-29T11:37:46;75.10;;;53.30;;
3811;SDS011;1921;49.368;11.068;2023-07-29T11:40:23;73.90;;;53.27;;
3811;SDS011;1921;49.368;11.068;2023-07-29T11:42:50;73.50;;;53.17;;
3811;SDS011;1921;49.368;11.068;2023-07-29T11:45:17;73.70;;;53.40;;
3811;SDS011;1921;49.368;11.068;2023-07-29T11:47:45;76.27;;;53.10;;
3811;SDS011;1921;49.368;11.068;2023-07-29T11:50:12;74.67;;;53.50;;
3811;SDS011;1921;49.368;11.068;2023-07-29T11:52:41;73.20;;;52.90;;
3811;SDS011;1921;49.368;11.068;2023-07-29T11:55:11;73.17;;;52.80;;
3811;SDS011;1921;49.368;11.068;2023-07-29T11:57:39;73.30;;;52.67;;
3811;SDS011;1921;49.368;11.068;2023-07-29T12:00:06;72.80;;;52.43;;
3811;SDS011;1921;49.368;11.068;2023-07-29T12:02:36;77.23;;;52.97;;
3811;SDS011;1921;49.368;11.068;2023-07-29T12:05:05;75.73;;;52.90;;
3811;SDS011;1921;49.368;11.068;2023-07-29T12:07:32;74.23;;;53.13;;
3811;SDS011;1921;49.368;11.068;2023-07-29T12:10:01;75.77;;;53.20;;
3811;SDS011;1921;49.368;11.068;2023-07-29T12:12:28;75.70;;;53.87;;
3811;SDS011;1921;49.368;11.068;2023-07-29T12:14:55;74.03;;;53.30;;
3811;SDS011;1921;49.368;11.068;2023-07-29T12:17:21;74.83;;;53.50;;
3811;SDS011;1921;49.368;11.068;2023-07-29T12:19:47;74.50;;;53.43;;
3811;SDS011;1921;49.368;11.068;2023-07-29T12:22:17;74.87;;;53.43;;
3811;SDS011;1921;49.368;11.068;2023-07-29T12:24:45;77.70;;;53.97;;
3811;SDS011;1921;49.368;11.068;2023-07-29T12:27:11;79.55;;;54.08;;
3811;SDS011;1921;49.368;11.068;2023-07-29T12:29:42;75.93;;;53.97;;
3811;SDS011;1921;49.368;11.068;2023-07-29T12:32:09;75.80;;;54.20;;
3811;SDS011;1921;49.368;11.068;2023-07-29T12:34:37;75.65;;;54.22;;
3811;SDS011;1921;49.368;11.068;2023-07-29T12:37:04;75.97;;;54.08;;
3811;SDS011;1921;49.368;11.068;2023-07-29T12:39:32;75.90;;;54.20;;
3811;SDS011;1921;49.368;11.068;2023-07-29T12:42:00;77.30;;;54.70;;
3811;SDS011;1921;49.368;11.068;2023-07-29T12:44:31;75.90;;;54.50;;
3811;SDS011;1921;49.368;11.068;2023-07-29T12:47:00;75.15;;;53.97;;
3811;SDS011;1921;49.368;11.068;2023-07-29T12:49:28;76.20;;;53.97;;
3811;SDS011;1921;49.368;11.068;2023-07-29T12:51:55;74.67;;;53.67;;
3811;SDS011;1921;49.368;11.068;2023-07-29T12:54:24;74.18;;;53.50;;
3811;SDS011;1921;49.368;11.068;2023-07-29T12:56:50;75.28;;;54.05;;
3811;SDS011;1921;49.368;11.068;2023-07-29T12:59:16;75.82;;;54.08;;
3811;SDS011;1921;49.368;11.068;2023-07-29T13:01:42;75.65;;;54.08;;
3811;SDS011;1921;49.368;11.068;2023-07-29T13:04:09;77.15;;;54.58;;
3811;SDS011;1921;49.368;11.068;2023-07-29T13:06:35;75.07;;;54.25;;
3811;SDS011;1921;49.368;11.068;2023-07-29T13:09:01;75.72;;;54.33;;
3811;SDS011;1921;49.368;11.068;2023-07-29T13:11:28;78.10;;;54.08;;
3811;SDS011;1921;49.368;11.068;2023-07-29T13:13:54;77.88;;;54.10;;
3811;SDS011;1921;49.368;11.068;2023-07-29T13:16:19;75.53;;;54.53;;
3811;SDS011;1921;49.368;11.068;2023-07-29T13:18:45;75.03;;;54.08;;
3811;SDS011;1921;49.368;11.068;2023-07-29T13:21:11;74.65;;;54.15;;
3811;SDS011;1921;49.368;11.068;2023-07-29T13:23:36;75.85;;;54.08;;
3811;SDS011;1921;49.368;11.068;2023-07-29T13:26:02;75.60;;;54.55;;
3811;SDS011;1921;49.368;11.068;2023-07-29T13:28:28;74.87;;;54.10;;
3811;SDS011;1921;49.368;11.068;2023-07-29T13:30:54;76.10;;;53.93;;
3811;SDS011;1921;49.368;11.068;2023-07-29T13:33:19;75.67;;;54.13;;
3811;SDS011;1921;49.368;11.068;2023-07-29T13:35:45;74.77;;;54.00;;
3811;SDS011;1921;49.368;11.068;2023-07-29T13:38:11;75.40;;;54.47;;
3811;SDS011;1921;49.368;11.068;2023-07-29T13:40:37;74.78;;;54.25;;
3811;SDS011;1921;49.368;11.068;2023-07-29T13:43:03;73.88;;;53.83;;
3811;SDS011;1921;49.368;11.068;2023-07-29T13:45:28;74.72;;;53.83;;
3811;SDS011;1921;49.368;11.068;2023-07-29T13:47:54;75.10;;;54.17;;
3811;SDS011;1921;49.368;11.068;2023-07-29T13:50:20;75.18;;;54.47;;
3811;SDS011;1921;49.368;11.068;2023-07-29T13:52:46;76.13;;;54.45;;
3811;SDS011;1921;49.368;11.068;2023-07-29T13:55:11;76.32;;;55.42;;
3811;SDS011;1921;49.368;11.068;2023-07-29T13:57:37;75.97;;;54.70;;
3811;SDS011;1921;49.368;11.068;2023-07-29T14:00:05;77.32;;;54.53;;
3811;SDS011;1921;49.368;11.068;2023-07-29T14:02:32;74.82;;;54.30;;
3811;SDS011;1921;49.368;11.068;2023-07-29T14:04:58;75.47;;;54.73;;
3811;SDS011;1921;49.368;11.068;2023-07-29T14:07:23;76.77;;;53.87;;
3811;SDS011;1921;49.368;11.068;2023-07-29T14:09:49;75.65;;;54.17;;
3811;SDS011;1921;49.368;11.068;2023-07-29T14:12:15;75.60;;;53.95;;
3811;SDS011;1921;49.368;11.068;2023-07-29T14:14:41;86.28;;;59.05;;
3811;SDS011;1921;49.368;11.068;2023-07-29T14:17:07;77.40;;;55.72;;
3811;SDS011;1921;49.368;11.068;2023-07-29T14:19:34;76.70;;;54.47;;
3811;SDS011;1921;49.368;11.068;2023-07-29T14:21:59;75.00;;;54.40;;
3811;SDS011;1921;49.368;11.068;2023-07-29T14:24:25;75.65;;;54.58;;
3811;SDS011;1921;49.368;11.068;2023-07-29T14:26:51;73.82;;;53.63;;
3811;SDS011;1921;49.368;11.068;2023-07-29T14:29:17;74.63;;;54.17;;
3811;SDS011;1921;49.368;11.068;2023-07-29T14:31:42;78.03;;;56.00;;
3811;SDS011;1921;49.368;11.068;2023-07-29T14:34:08;75.67;;;54.53;;
3811;SDS011;1921;49.368;11.068;2023-07-29T14:36:34;73.70;;;53.67;;
3811;SDS011;1921;49.368;11.068;2023-07-29T14:39:00;74.07;;;53.93;;
3811;SDS011;1921;49.368;11.068;2023-07-29T14:41:26;74.60;;;53.97;;
3811;SDS011;1921;49.368;11.068;2023-07-29T14:43:52;74.07;;;53.87;;
3811;SDS011;1921;49.368;11.068;2023-07-29T14:46:17;74.87;;;53.63;;
3811;SDS011;1921;49.368;11.068;2023-07-29T14:48:43;73.97;;;53.67;;
3811;SDS011;1921;49.368;11.068;2023-07-29T14:51:10;73.17;;;53.33;;
3811;SDS011;1921;49.368;11.068;2023-07-29T14:53:35;77.60;;;53.40;;